sensor_id;sensor_type;location;lat;lon;timestamp;temperature;humidity
43991;DHT22;29654;50.784;20.604;2023-03-26T00:02:50;14.30;48.60
43991;DHT22;29654;50.784;20.604;2023-03-26T00:07:53;14.30;48.70
43991;DHT22;29654;50.784;20.604;2023-03-26T00:12:57;15.20;48.80
43991;DHT22;29654;50.784;20.604;2023-03-26T00:17:59;14.70;48.60
43991;DHT22;29654;50.784;20.604;2023-03-26T00:23:02;14.60;48.40
43991;DHT22;29654;50.784;20.604;2023-03-26T00:28:06;14.50;48.20
43991;DHT22;29654;50.784;20.604;2023-03-26T00:33:09;14.30;48.30
43991;DHT22;29654;50.784;20.604;2023-03-26T00:38:13;14.20;48.40
43991;DHT22;29654;50.784;20.604;2023-03-26T00:43:17;14.00;48.50
43991;DHT22;29654;50.784;20.604;2023-03-26T00:48:21;14.00;48.80
43991;DHT22;29654;50.784;20.604;2023-03-26T00:53:24;13.90;49.00
43991;DHT22;29654;50.784;20.604;2023-03-26T00:58:28;13.80;49.00
43991;DHT22;29654;50.784;20.604;2023-03-26T01:03:32;13.80;49.10
43991;DHT22;29654;50.784;20.604;2023-03-26T01:08:39;13.80;49.10
43991;DHT22;29654;50.784;20.604;2023-03-26T01:13:46;13.80;49.20
43991;DHT22;29654;50.784;20.604;2023-03-26T01:18:50;13.80;49.40
43991;DHT22;29654;50.784;20.604;2023-03-26T01:24:00;13.70;49.30
43991;DHT22;29654;50.784;20.604;2023-03-26T01:29:05;13.70;49.40
43991;DHT22;29654;50.784;20.604;2023-03-26T01:34:19;13.70;49.40
43991;DHT22;29654;50.784;20.604;2023-03-26T01:39:30;13.80;49.60
43991;DHT22;29654;50.784;20.604;2023-03-26T01:44:38;13.80;49.60
43991;DHT22;29654;50.784;20.604;2023-03-26T01:49:46;13.80;49.50
43991;DHT22;29654;50.784;20.604;2023-03-26T01:54:50;13.70;49.30
43991;DHT22;29654;50.784;20.604;2023-03-26T02:00:04;13.70;49.30
43991;DHT22;29654;50.784;20.604;2023-03-26T02:05:18;13.70;49.30
43991;DHT22;29654;50.784;20.604;2023-03-26T02:10:26;13.60;49.30
43991;DHT22;29654;50.784;20.604;2023-03-26T02:15:30;13.60;49.40
43991;DHT22;29654;50.784;20.604;2023-03-26T02:20:33;13.50;49.20
43991;DHT22;29654;50.784;20.604;2023-03-26T02:25:37;13.50;49.30
43991;DHT22;29654;50.784;20.604;2023-03-26T02:30:41;13.40;49.40
43991;DHT22;29654;50.784;20.604;2023-03-26T02:35:45;13.30;50.20
43991;DHT22;29654;50.784;20.604;2023-03-26T02:40:49;13.30;49.80
43991;DHT22;29654;50.784;20.604;2023-03-26T02:45:54;13.30;50.00
43991;DHT22;29654;50.784;20.604;2023-03-26T02:51:25;13.40;50.10
43991;DHT22;29654;50.784;20.604;2023-03-26T02:56:44;13.40;50.30
43991;DHT22;29654;50.784;20.604;2023-03-26T03:02:09;13.50;50.20
43991;DHT22;29654;50.784;20.604;2023-03-26T03:07:13;13.50;50.10
43991;DHT22;29654;50.784;20.604;2023-03-26T03:12:17;13.60;50.20
43991;DHT22;29654;50.784;20.604;2023-03-26T03:17:20;13.60;50.20
43991;DHT22;29654;50.784;20.604;2023-03-26T03:22:23;13.70;50.80
43991;DHT22;29654;50.784;20.604;2023-03-26T03:27:27;13.70;50.10
43991;DHT22;29654;50.784;20.604;2023-03-26T03:32:41;13.70;50.10
43991;DHT22;29654;50.784;20.604;2023-03-26T03:37:44;13.80;50.10
43991;DHT22;29654;50.784;20.604;2023-03-26T03:42:49;13.80;50.10
43991;DHT22;29654;50.784;20.604;2023-03-26T03:48:01;13.80;50.20
43991;DHT22;29654;50.784;20.604;2023-03-26T03:53:13;13.90;50.80
43991;DHT22;29654;50.784;20.604;2023-03-26T03:58:23;13.90;50.00
43991;DHT22;29654;50.784;20.604;2023-03-26T04:03:32;14.00;50.10
43991;DHT22;29654;50.784;20.604;2023-03-26T04:08:42;14.00;50.10
43991;DHT22;29654;50.784;20.604;2023-03-26T04:13:46;14.00;50.10
43991;DHT22;29654;50.784;20.604;2023-03-26T04:19:21;14.00;50.20
43991;DHT22;29654;50.784;20.604;2023-03-26T04:24:25;13.90;50.30
43991;DHT22;29654;50.784;20.604;2023-03-26T04:29:51;13.90;50.40
43991;DHT22;29654;50.784;20.604;2023-03-26T04:34:57;13.90;50.70
43991;DHT22;29654;50.784;20.604;2023-03-26T04:40:01;13.90;50.60
43991;DHT22;29654;50.784;20.604;2023-03-26T04:45:16;13.90;50.60
43991;DHT22;29654;50.784;20.604;2023-03-26T04:50:28;14.00;50.80
43991;DHT22;29654;50.784;20.604;2023-03-26T04:55:35;14.00;50.70
43991;DHT22;29654;50.784;20.604;2023-03-26T05:00:52;14.00;51.00
43991;DHT22;29654;50.784;20.604;2023-03-26T05:05:55;14.00;50.90
43991;DHT22;29654;50.784;20.604;2023-03-26T05:10:58;14.10;50.90
43991;DHT22;29654;50.784;20.604;2023-03-26T05:16:09;14.10;50.90
43991;DHT22;29654;50.784;20.604;2023-03-26T05:21:21;14.10;50.90
43991;DHT22;29654;50.784;20.604;2023-03-26T05:26:24;14.10;50.90
43991;DHT22;29654;50.784;20.604;2023-03-26T05:31:30;14.20;51.00
43991;DHT22;29654;50.784;20.604;2023-03-26T05:36:34;14.30;51.10
43991;DHT22;29654;50.784;20.604;2023-03-26T05:41:52;14.30;51.10
43991;DHT22;29654;50.784;20.604;2023-03-26T05:47:01;14.30;51.10
43991;DHT22;29654;50.784;20.604;2023-03-26T05:52:04;14.40;51.20
43991;DHT22;29654;50.784;20.604;2023-03-26T05:57:28;14.50;51.20
43991;DHT22;29654;50.784;20.604;2023-03-26T06:02:51;14.70;51.20
43991;DHT22;29654;50.784;20.604;2023-03-26T06:08:17;14.80;51.20
43991;DHT22;29654;50.784;20.604;2023-03-26T06:13:25;14.90;51.80
43991;DHT22;29654;50.784;20.604;2023-03-26T06:18:31;15.10;51.20
43991;DHT22;29654;50.784;20.604;2023-03-26T06:23:54;15.20;51.00
43991;DHT22;29654;50.784;20.604;2023-03-26T06:29:05;15.40;50.70
43991;DHT22;29654;50.784;20.604;2023-03-26T06:34:28;15.50;50.50
43991;DHT22;29654;50.784;20.604;2023-03-26T06:39:31;15.50;50.20
43991;DHT22;29654;50.784;20.604;2023-03-26T06:45:00;15.50;50.00
43991;DHT22;29654;50.784;20.604;2023-03-26T06:50:10;15.40;50.10
43991;DHT22;29654;50.784;20.604;2023-03-26T06:55:33;15.40;50.40
43991;DHT22;29654;50.784;20.604;2023-03-26T07:00:58;15.40;50.50
43991;DHT22;29654;50.784;20.604;2023-03-26T07:06:21;15.50;50.90
43991;DHT22;29654;50.784;20.604;2023-03-26T07:11:42;15.70;50.90
43991;DHT22;29654;50.784;20.604;2023-03-26T07:17:05;15.80;50.40
43991;DHT22;29654;50.784;20.604;2023-03-26T07:22:42;15.90;50.10
43991;DHT22;29654;50.784;20.604;2023-03-26T07:27:58;15.90;50.00
43991;DHT22;29654;50.784;20.604;2023-03-26T07:33:29;15.90;50.10
43991;DHT22;29654;50.784;20.604;2023-03-26T07:39:10;15.90;50.10
43991;DHT22;29654;50.784;20.604;2023-03-26T07:44:45;16.00;50.10
43991;DHT22;29654;50.784;20.604;2023-03-26T07:49:55;16.10;50.50
43991;DHT22;29654;50.784;20.604;2023-03-26T07:55:14;16.20;50.60
43991;DHT22;29654;50.784;20.604;2023-03-26T08:00:39;16.50;50.50
43991;DHT22;29654;50.784;20.604;2023-03-26T08:05:51;16.70;49.90
43991;DHT22;29654;50.784;20.604;2023-03-26T08:11:30;16.90;49.40
43991;DHT22;29654;50.784;20.604;2023-03-26T08:16:39;17.00;48.70
43991;DHT22;29654;50.784;20.604;2023-03-26T08:21:49;16.90;48.50
43991;DHT22;29654;50.784;20.604;2023-03-26T08:26:58;16.90;48.20
43991;DHT22;29654;50.784;20.604;2023-03-26T08:32:13;16.90;47.90
43991;DHT22;29654;50.784;20.604;2023-03-26T08:37:17;16.80;47.80
43991;DHT22;29654;50.784;20.604;2023-03-26T08:48:59;16.40;47.60
43991;DHT22;29654;50.784;20.604;2023-03-26T09:06:15;16.20;48.00
43991;DHT22;29654;50.784;20.604;2023-03-26T09:17:43;16.40;48.10
43991;DHT22;29654;50.784;20.604;2023-03-26T09:23:42;16.50;47.80
43991;DHT22;29654;50.784;20.604;2023-03-26T09:29:22;16.60;47.70
43991;DHT22;29654;50.784;20.604;2023-03-26T09:35:09;16.80;47.90
43991;DHT22;29654;50.784;20.604;2023-03-26T09:40:17;16.80;47.80
43991;DHT22;29654;50.784;20.604;2023-03-26T09:45:51;16.90;47.90
43991;DHT22;29654;50.784;20.604;2023-03-26T09:56:50;17.10;47.80
43991;DHT22;29654;50.784;20.604;2023-03-26T10:02:07;17.20;47.80
43991;DHT22;29654;50.784;20.604;2023-03-26T10:13:10;17.60;47.10
43991;DHT22;29654;50.784;20.604;2023-03-26T10:18:26;17.70;46.50
43991;DHT22;29654;50.784;20.604;2023-03-26T10:23:53;17.70;45.70
43991;DHT22;29654;50.784;20.604;2023-03-26T10:29:49;17.60;46.00
43991;DHT22;29654;50.784;20.604;2023-03-26T10:35:14;17.60;45.60
43991;DHT22;29654;50.784;20.604;2023-03-26T10:40:28;17.50;45.60
43991;DHT22;29654;50.784;20.604;2023-03-26T10:45:44;17.40;45.70
43991;DHT22;29654;50.784;20.604;2023-03-26T10:51:15;17.40;45.30
43991;DHT22;29654;50.784;20.604;2023-03-26T10:56:27;17.40;44.90
43991;DHT22;29654;50.784;20.604;2023-03-26T11:01:40;17.30;45.50
43991;DHT22;29654;50.784;20.604;2023-03-26T11:06:49;17.40;45.60
43991;DHT22;29654;50.784;20.604;2023-03-26T11:12:02;17.50;45.80
43991;DHT22;29654;50.784;20.604;2023-03-26T11:17:15;17.60;44.80
43991;DHT22;29654;50.784;20.604;2023-03-26T11:22:27;17.50;44.50
43991;DHT22;29654;50.784;20.604;2023-03-26T11:27:44;17.60;44.50
43991;DHT22;29654;50.784;20.604;2023-03-26T11:32:55;17.60;43.90
43991;DHT22;29654;50.784;20.604;2023-03-26T11:38:04;17.60;44.90
43991;DHT22;29654;50.784;20.604;2023-03-26T11:43:11;17.70;44.80
43991;DHT22;29654;50.784;20.604;2023-03-26T11:48:21;17.80;43.80
43991;DHT22;29654;50.784;20.604;2023-03-26T11:53:28;18.00;44.30
43991;DHT22;29654;50.784;20.604;2023-03-26T11:58:39;18.10;43.90
43991;DHT22;29654;50.784;20.604;2023-03-26T12:03:56;18.30;44.20
43991;DHT22;29654;50.784;20.604;2023-03-26T12:09:01;18.50;43.30
43991;DHT22;29654;50.784;20.604;2023-03-26T12:14:04;18.70;43.60
43991;DHT22;29654;50.784;20.604;2023-03-26T12:19:18;18.80;42.20
43991;DHT22;29654;50.784;20.604;2023-03-26T12:24:27;18.70;40.80
43991;DHT22;29654;50.784;20.604;2023-03-26T12:29:30;18.70;41.00
43991;DHT22;29654;50.784;20.604;2023-03-26T12:34:36;18.60;42.30
43991;DHT22;29654;50.784;20.604;2023-03-26T12:39:40;18.60;41.70
43991;DHT22;29654;50.784;20.604;2023-03-26T12:44:45;18.60;42.50
43991;DHT22;29654;50.784;20.604;2023-03-26T12:49:54;18.60;42.40
43991;DHT22;29654;50.784;20.604;2023-03-26T12:55:02;18.60;42.50
43991;DHT22;29654;50.784;20.604;2023-03-26T13:00:26;18.50;42.90
43991;DHT22;29654;50.784;20.604;2023-03-26T13:06:07;18.50;43.40
43991;DHT22;29654;50.784;20.604;2023-03-26T13:11:27;18.60;43.50
43991;DHT22;29654;50.784;20.604;2023-03-26T13:16:39;18.70;43.60
43991;DHT22;29654;50.784;20.604;2023-03-26T13:22:03;18.80;43.70
43991;DHT22;29654;50.784;20.604;2023-03-26T13:27:27;18.80;42.90
43991;DHT22;29654;50.784;20.604;2023-03-26T13:32:46;18.70;42.20
43991;DHT22;29654;50.784;20.604;2023-03-26T13:38:04;18.60;42.40
43991;DHT22;29654;50.784;20.604;2023-03-26T13:43:22;18.60;43.20
43991;DHT22;29654;50.784;20.604;2023-03-26T13:48:36;18.70;43.10
43991;DHT22;29654;50.784;20.604;2023-03-26T13:53:48;18.80;42.70
43991;DHT22;29654;50.784;20.604;2023-03-26T13:58:57;18.80;42.10
43991;DHT22;29654;50.784;20.604;2023-03-26T14:04:06;18.70;41.90
43991;DHT22;29654;50.784;20.604;2023-03-26T14:09:24;18.70;42.30
43991;DHT22;29654;50.784;20.604;2023-03-26T14:14:33;18.70;42.40
43991;DHT22;29654;50.784;20.604;2023-03-26T14:25:54;18.80;42.00
43991;DHT22;29654;50.784;20.604;2023-03-26T14:31:14;18.80;42.20
43991;DHT22;29654;50.784;20.604;2023-03-26T14:36:45;18.70;41.80
43991;DHT22;29654;50.784;20.604;2023-03-26T14:42:14;18.60;41.70
43991;DHT22;29654;50.784;20.604;2023-03-26T14:47:21;18.60;41.70
43991;DHT22;29654;50.784;20.604;2023-03-26T14:52:32;18.60;41.80
43991;DHT22;29654;50.784;20.604;2023-03-26T14:58:04;18.50;41.70
43991;DHT22;29654;50.784;20.604;2023-03-26T15:16:00;18.40;41.60
43991;DHT22;29654;50.784;20.604;2023-03-26T15:33:09;18.10;41.50
43991;DHT22;29654;50.784;20.604;2023-03-26T15:39:08;18.00;41.70
43991;DHT22;29654;50.784;20.604;2023-03-26T15:44:51;17.80;41.80
43991;DHT22;29654;50.784;20.604;2023-03-26T15:50:01;17.70;42.30
43991;DHT22;29654;50.784;20.604;2023-03-26T15:55:24;17.60;42.50
43991;DHT22;29654;50.784;20.604;2023-03-26T16:00:34;17.60;42.50
43991;DHT22;29654;50.784;20.604;2023-03-26T16:05:56;17.60;42.60
43991;DHT22;29654;50.784;20.604;2023-03-26T16:11:11;17.50;42.50
43991;DHT22;29654;50.784;20.604;2023-03-26T16:16:48;17.40;42.60
43991;DHT22;29654;50.784;20.604;2023-03-26T16:21:57;17.40;42.60
43991;DHT22;29654;50.784;20.604;2023-03-26T16:32:32;17.30;42.90
43991;DHT22;29654;50.784;20.604;2023-03-26T16:37:39;17.20;43.10
43991;DHT22;29654;50.784;20.604;2023-03-26T16:42:47;17.20;43.10
43991;DHT22;29654;50.784;20.604;2023-03-26T16:47:59;17.10;43.00
43991;DHT22;29654;50.784;20.604;2023-03-26T16:53:19;17.10;43.10
43991;DHT22;29654;50.784;20.604;2023-03-26T16:58:30;17.10;43.10
43991;DHT22;29654;50.784;20.604;2023-03-26T17:03:43;17.00;43.10
43991;DHT22;29654;50.784;20.604;2023-03-26T17:08:59;16.90;43.20
43991;DHT22;29654;50.784;20.604;2023-03-26T17:14:12;16.80;43.40
43991;DHT22;29654;50.784;20.604;2023-03-26T17:19:26;16.70;43.60
43991;DHT22;29654;50.784;20.604;2023-03-26T17:24:39;16.70;43.70
43991;DHT22;29654;50.784;20.604;2023-03-26T17:36:21;16.50;44.00
43991;DHT22;29654;50.784;20.604;2023-03-26T17:41:55;16.40;44.20
43991;DHT22;29654;50.784;20.604;2023-03-26T17:47:26;16.20;44.50
43991;DHT22;29654;50.784;20.604;2023-03-26T17:52:42;16.10;44.80
43991;DHT22;29654;50.784;20.604;2023-03-26T17:57:52;16.00;45.10
43991;DHT22;29654;50.784;20.604;2023-03-26T18:03:00;16.00;45.30
43991;DHT22;29654;50.784;20.604;2023-03-26T18:08:30;15.90;45.40
43991;DHT22;29654;50.784;20.604;2023-03-26T18:14:35;15.90;46.00
43991;DHT22;29654;50.784;20.604;2023-03-26T18:20:04;15.80;46.30
43991;DHT22;29654;50.784;20.604;2023-03-26T18:25:20;15.80;46.20
43991;DHT22;29654;50.784;20.604;2023-03-26T18:30:26;15.80;46.20
43991;DHT22;29654;50.784;20.604;2023-03-26T18:35:39;15.70;45.90
43991;DHT22;29654;50.784;20.604;2023-03-26T18:40:44;15.60;46.30
43991;DHT22;29654;50.784;20.604;2023-03-26T18:45:50;15.40;46.00
43991;DHT22;29654;50.784;20.604;2023-03-26T18:50:58;15.30;46.10
43991;DHT22;29654;50.784;20.604;2023-03-26T18:56:17;15.10;46.20
43991;DHT22;29654;50.784;20.604;2023-03-26T19:01:24;15.00;46.90
43991;DHT22;29654;50.784;20.604;2023-03-26T19:06:31;14.90;46.40
43991;DHT22;29654;50.784;20.604;2023-03-26T19:11:39;14.70;46.20
43991;DHT22;29654;50.784;20.604;2023-03-26T19:16:45;14.50;46.30
43991;DHT22;29654;50.784;20.604;2023-03-26T19:21:50;14.40;46.50
43991;DHT22;29654;50.784;20.604;2023-03-26T19:26:52;14.20;46.40
43991;DHT22;29654;50.784;20.604;2023-03-26T19:32:02;14.10;46.60
43991;DHT22;29654;50.784;20.604;2023-03-26T19:37:16;13.90;47.10
43991;DHT22;29654;50.784;20.604;2023-03-26T19:42:24;13.80;47.40
43991;DHT22;29654;50.784;20.604;2023-03-26T19:47:38;13.70;47.30
43991;DHT22;29654;50.784;20.604;2023-03-26T19:52:42;13.50;47.90
43991;DHT22;29654;50.784;20.604;2023-03-26T19:57:46;13.50;47.70
43991;DHT22;29654;50.784;20.604;2023-03-26T20:02:50;13.40;47.90
43991;DHT22;29654;50.784;20.604;2023-03-26T20:07:55;13.40;48.20
43991;DHT22;29654;50.784;20.604;2023-03-26T20:12:59;13.40;48.40
43991;DHT22;29654;50.784;20.604;2023-03-26T20:18:03;13.40;48.30
43991;DHT22;29654;50.784;20.604;2023-03-26T20:23:11;13.30;48.60
43991;DHT22;29654;50.784;20.604;2023-03-26T20:28:18;13.30;49.00
43991;DHT22;29654;50.784;20.604;2023-03-26T20:33:24;13.30;48.80
43991;DHT22;29654;50.784;20.604;2023-03-26T20:38:27;13.30;49.20
43991;DHT22;29654;50.784;20.604;2023-03-26T20:43:29;13.30;49.00
43991;DHT22;29654;50.784;20.604;2023-03-26T20:48:33;13.30;49.20
43991;DHT22;29654;50.784;20.604;2023-03-26T20:53:36;13.30;49.40
43991;DHT22;29654;50.784;20.604;2023-03-26T20:58:42;13.30;49.40
43991;DHT22;29654;50.784;20.604;2023-03-26T21:03:47;13.30;49.60
43991;DHT22;29654;50.784;20.604;2023-03-26T21:08:51;13.30;49.90
43991;DHT22;29654;50.784;20.604;2023-03-26T21:13:58;13.30;50.00
43991;DHT22;29654;50.784;20.604;2023-03-26T21:19:05;13.30;50.50
43991;DHT22;29654;50.784;20.604;2023-03-26T21:24:17;13.40;50.50
43991;DHT22;29654;50.784;20.604;2023-03-26T21:29:25;13.40;50.90
43991;DHT22;29654;50.784;20.604;2023-03-26T21:34:30;13.40;50.30
43991;DHT22;29654;50.784;20.604;2023-03-26T21:39:34;13.50;50.60
43991;DHT22;29654;50.784;20.604;2023-03-26T21:44:38;13.50;50.40
43991;DHT22;29654;50.784;20.604;2023-03-26T21:49:43;13.50;50.50
43991;DHT22;29654;50.784;20.604;2023-03-26T21:54:46;13.50;50.80
43991;DHT22;29654;50.784;20.604;2023-03-26T21:59:57;13.40;50.70
43991;DHT22;29654;50.784;20.604;2023-03-26T22:05:16;13.50;51.20
43991;DHT22;29654;50.784;20.604;2023-03-26T22:10:19;13.50;51.00
43991;DHT22;29654;50.784;20.604;2023-03-26T22:15:22;13.50;50.80
43991;DHT22;29654;50.784;20.604;2023-03-26T22:20:27;13.50;50.80
43991;DHT22;29654;50.784;20.604;2023-03-26T22:25:30;13.50;50.90
43991;DHT22;29654;50.784;20.604;2023-03-26T22:30:33;13.50;50.80
43991;DHT22;29654;50.784;20.604;2023-03-26T22:35:37;13.50;50.90
43991;DHT22;29654;50.784;20.604;2023-03-26T22:40:39;13.60;51.10
43991;DHT22;29654;50.784;20.604;2023-03-26T22:45:48;13.60;51.00
43991;DHT22;29654;50.784;20.604;2023-03-26T22:51:00;13.60;51.50
43991;DHT22;29654;50.784;20.604;2023-03-26T22:56:04;13.60;51.90
43991;DHT22;29654;50.784;20.604;2023-03-26T23:01:09;13.70;51.40
43991;DHT22;29654;50.784;20.604;2023-03-26T23:06:15;13.70;51.50
43991;DHT22;29654;50.784;20.604;2023-03-26T23:11:19;13.80;51.50
43991;DHT22;29654;50.784;20.604;2023-03-26T23:16:22;13.80;51.30
43991;DHT22;29654;50.784;20.604;2023-03-26T23:21:26;13.80;51.20
43991;DHT22;29654;50.784;20.604;2023-03-26T23:26:28;13.80;51.40
43991;DHT22;29654;50.784;20.604;2023-03-26T23:31:33;13.80;51.30
43991;DHT22;29654;50.784;20.604;2023-03-26T23:36:37;13.80;51.40
43991;DHT22;29654;50.784;20.604;2023-03-26T23:41:40;13.80;51.50
43991;DHT22;29654;50.784;20.604;2023-03-26T23:46:43;13.80;51.50
43991;DHT22;29654;50.784;20.604;2023-03-26T23:51:48;13.80;51.60
43991;DHT22;29654;50.784;20.604;2023-03-26T23:56:51;13.80;51.80
